createdAt,value
2018-05-15T20:29:41.027Z,23.27
2018-05-15T20:32:08.762Z,23.20
2018-05-15T20:34:36.400Z,23.11
2018-05-15T20:37:04.249Z,23.03
2018-05-15T20:39:31.946Z,23.05
2018-05-15T20:41:59.670Z,23.19
2018-05-15T20:44:27.492Z,23.18
2018-05-15T20:46:55.105Z,23.37
2018-05-15T20:49:22.798Z,23.16
2018-05-15T20:51:50.657Z,23.21
2018-05-15T20:54:18.295Z,23.15
2018-05-15T20:56:47.877Z,23.14
2018-05-15T20:59:16.176Z,23.06
2018-05-15T21:01:43.770Z,23.11
2018-05-15T21:04:11.394Z,23.07
2018-05-15T21:06:39.085Z,23.08
2018-05-15T21:09:06.733Z,23.09
2018-05-15T21:11:34.371Z,23.08
2018-05-15T21:14:02.527Z,23.12
2018-05-15T21:16:30.117Z,23.02
2018-05-15T21:18:57.775Z,22.76
2018-05-15T21:21:25.929Z,22.64
2018-05-15T21:23:53.530Z,22.45
2018-05-15T21:26:21.153Z,22.46
2018-05-15T21:28:49.301Z,22.49
2018-05-15T21:31:16.873Z,22.40
2018-05-15T21:33:44.549Z,22.40
2018-05-15T21:36:12.238Z,22.41
2018-05-15T21:38:39.865Z,22.45
2018-05-15T21:41:07.500Z,22.34
2018-05-15T21:43:35.404Z,22.25
2018-05-15T21:46:03.062Z,22.19
2018-05-15T21:48:30.704Z,22.27
2018-05-15T21:50:58.389Z,22.26
2018-05-15T21:53:25.998Z,22.21
2018-05-15T21:55:53.641Z,22.22
2018-05-15T21:58:21.340Z,22.14
2018-05-15T22:00:48.962Z,22.08
2018-05-15T22:03:16.633Z,21.98
2018-05-15T22:05:44.623Z,22.09
2018-05-15T22:08:12.221Z,22.10
2018-05-15T22:10:39.827Z,21.99
2018-05-15T22:13:19.270Z,22.00
2018-05-15T22:15:58.671Z,22.03
2018-05-15T22:18:38.086Z,21.93
2018-05-15T22:21:17.289Z,21.85
2018-05-15T22:23:44.502Z,21.86
2018-05-15T22:26:12.095Z,21.89
2018-05-15T22:28:39.704Z,21.85
2018-05-15T22:31:07.565Z,21.76
2018-05-15T22:33:35.315Z,21.54
2018-05-15T22:36:02.909Z,21.54
2018-05-15T22:38:30.723Z,21.47
2018-05-15T22:40:58.461Z,21.47
2018-05-15T22:43:26.043Z,21.30
2018-05-15T22:45:53.926Z,21.27
2018-05-15T22:48:21.622Z,21.18
2018-05-15T22:50:49.256Z,21.12
2018-05-15T22:53:16.931Z,21.13
2018-05-15T22:55:44.577Z,21.15
2018-05-15T22:58:12.242Z,21.10
2018-05-15T23:00:40.076Z,21.03
2018-05-15T23:03:07.835Z,21.04
2018-05-15T23:05:35.405Z,21.09
2018-05-15T23:08:03.268Z,20.96
2018-05-15T23:10:30.948Z,20.97
2018-05-15T23:12:58.573Z,20.93
2018-05-15T23:15:26.287Z,20.98
2018-05-15T23:17:53.944Z,21.01
2018-05-15T23:20:21.598Z,20.97
2018-05-15T23:22:49.256Z,20.81
2018-05-15T23:25:16.898Z,20.86
2018-05-15T23:27:44.544Z,20.86
2018-05-15T23:30:12.744Z,20.79
2018-05-15T23:32:40.333Z,20.84
2018-05-15T23:35:07.939Z,20.76
2018-05-15T23:37:35.664Z,20.78
2018-05-15T23:40:03.264Z,20.78
2018-05-15T23:42:30.921Z,20.78
2018-05-15T23:44:58.618Z,20.86
2018-05-15T23:47:26.279Z,20.93
2018-05-15T23:49:53.899Z,21.05
2018-05-15T23:52:22.050Z,21.02
2018-05-15T23:54:49.672Z,20.97
2018-05-15T23:57:17.264Z,20.91
2018-05-15T23:59:45.008Z,20.95
